createdAt,value
2019-03-05T00:03:26.442Z,82.10
2019-03-05T00:08:31.649Z,82.20
2019-03-05T00:13:36.491Z,81.90
2019-03-05T00:18:41.524Z,81.50
2019-03-05T00:23:49.748Z,81.10
2019-03-05T00:28:58.178Z,81.20
2019-03-05T00:34:06.251Z,80.80
2019-03-05T00:39:14.324Z,79.80
2019-03-05T00:44:20.578Z,80.20
2019-03-05T00:49:28.808Z,80.10
2019-03-05T00:54:36.910Z,79.80
2019-03-05T00:59:45.025Z,79.20
2019-03-05T01:04:53.184Z,79.20
2019-03-05T01:09:58.530Z,79.10
2019-03-05T01:15:04.746Z,78.20
2019-03-05T01:20:12.110Z,77.70
2019-03-05T01:25:20.296Z,77.60
2019-03-05T01:30:28.347Z,76.80
2019-03-05T01:35:35.255Z,76.40
2019-03-05T01:40:41.025Z,76.00
2019-03-05T01:45:46.375Z,76.20
2019-03-05T01:50:51.618Z,76.30
2019-03-05T01:55:57.096Z,76.30
2019-03-05T02:01:02.568Z,76.50
2019-03-05T02:06:07.740Z,76.50
2019-03-05T02:11:13.808Z,76.60
2019-03-05T02:16:19.146Z,76.30
2019-03-05T02:21:24.707Z,77.40
2019-03-05T02:26:33.136Z,76.70
2019-03-05T02:31:41.773Z,76.70
2019-03-05T02:36:50.424Z,76.90
2019-03-05T02:41:58.696Z,77.30
2019-03-05T02:47:24.656Z,77.00
2019-03-05T02:52:33.430Z,77.00
2019-03-05T02:57:38.045Z,76.60
2019-03-05T03:02:45.115Z,76.70
2019-03-05T03:07:50.279Z,76.60
2019-03-05T03:12:55.557Z,76.50
2019-03-05T03:18:00.473Z,76.30
2019-03-05T03:23:05.667Z,76.40
2019-03-05T03:28:11.445Z,76.40
2019-03-05T03:33:16.484Z,77.00
2019-03-05T03:38:21.706Z,77.50
2019-03-05T03:43:26.787Z,77.70
2019-03-05T03:48:32.102Z,77.60
2019-03-05T03:53:37.560Z,77.00
2019-03-05T03:58:43.220Z,77.10
2019-03-05T04:03:48.631Z,76.90
2019-03-05T04:08:54.184Z,77.10
2019-03-05T04:13:59.917Z,76.20
2019-03-05T04:19:06.912Z,76.00
2019-03-05T04:24:12.333Z,75.60
2019-03-05T04:29:18.158Z,75.50
2019-03-05T04:34:24.420Z,75.90
2019-03-05T04:39:49.694Z,75.80
2019-03-05T04:44:56.585Z,76.20
2019-03-05T04:50:03.616Z,76.50
2019-03-05T04:55:08.957Z,76.60
2019-03-05T05:00:14.980Z,76.80
2019-03-05T05:05:20.733Z,76.70
2019-03-05T05:10:25.873Z,76.50
2019-03-05T05:15:33.929Z,76.60
2019-03-05T05:20:39.249Z,76.70
2019-03-05T05:25:44.758Z,76.80
2019-03-05T05:30:49.934Z,77.10
2019-03-05T05:35:55.063Z,77.30
2019-03-05T05:41:00.529Z,77.50
2019-03-05T05:46:05.617Z,77.40
2019-03-05T05:51:11.384Z,78.40
2019-03-05T05:56:16.580Z,77.60
2019-03-05T06:01:21.873Z,77.70
2019-03-05T06:06:27.509Z,77.90
2019-03-05T06:11:33.011Z,77.90
2019-03-05T06:16:38.116Z,78.20
2019-03-05T06:21:42.904Z,79.10
2019-03-05T06:26:47.904Z,78.20
2019-03-05T06:31:53.060Z,77.40
2019-03-05T06:36:58.597Z,77.80
2019-03-05T06:42:03.763Z,77.60
2019-03-05T06:47:09.343Z,77.60
2019-03-05T06:52:14.343Z,77.30
2019-03-05T06:57:19.223Z,76.90
2019-03-05T07:02:24.268Z,77.20
2019-03-05T07:07:29.252Z,77.50
2019-03-05T07:12:37.271Z,77.20
2019-03-05T07:17:45.417Z,77.00
2019-03-05T07:22:53.682Z,76.50
2019-03-05T07:27:59.051Z,76.20
2019-03-05T07:33:04.550Z,75.60
2019-03-05T07:38:09.771Z,76.20
2019-03-05T07:43:14.807Z,75.10
2019-03-05T07:48:19.679Z,75.00
2019-03-05T07:53:25.071Z,75.30
2019-03-05T07:58:30.889Z,73.80
2019-03-05T08:03:36.091Z,74.10
2019-03-05T08:08:44.165Z,73.80
2019-03-05T08:13:51.917Z,73.70
2019-03-05T08:18:56.923Z,72.50
2019-03-05T08:24:01.891Z,72.80
2019-03-05T08:29:06.795Z,72.60
2019-03-05T08:34:12.118Z,73.30
2019-03-05T08:39:17.230Z,74.60
2019-03-05T08:44:22.527Z,75.00
2019-03-05T08:49:27.703Z,74.60
2019-03-05T08:54:32.609Z,75.20
2019-03-05T08:59:37.735Z,74.90
2019-03-05T09:04:43.299Z,75.30
2019-03-05T09:09:48.487Z,75.70
2019-03-05T09:14:53.800Z,76.00
2019-03-05T09:19:58.993Z,75.80
2019-03-05T09:25:05.324Z,75.60
2019-03-05T09:30:13.498Z,76.70
2019-03-05T09:35:18.483Z,76.00
2019-03-05T09:40:26.396Z,77.00
2019-03-05T09:45:31.620Z,74.20
2019-03-05T09:50:36.549Z,74.60
2019-03-05T09:56:01.296Z,74.00
2019-03-05T10:01:07.246Z,74.70
2019-03-05T10:06:12.406Z,73.10
2019-03-05T10:11:17.695Z,72.10
2019-03-05T10:16:30.135Z,72.40
2019-03-05T10:22:00.811Z,71.10
2019-03-05T10:27:14.349Z,69.90
2019-03-05T10:32:19.763Z,70.70
2019-03-05T10:37:49.213Z,71.30
2019-03-05T10:43:18.508Z,72.30
2019-03-05T10:48:50.411Z,73.90
2019-03-05T10:53:56.701Z,72.70
2019-03-05T10:59:01.592Z,71.20
2019-03-05T11:04:07.238Z,71.30
2019-03-05T11:09:13.311Z,70.00
2019-03-05T11:14:19.403Z,72.80
2019-03-05T11:19:24.894Z,73.10
2019-03-05T11:24:29.947Z,74.00
2019-03-05T11:29:35.023Z,72.30
2019-03-05T11:34:40.667Z,72.50
2019-03-05T11:39:45.815Z,71.50
2019-03-05T11:45:03.842Z,68.70
2019-03-05T11:49:57.689Z,68.60
2019-03-05T11:55:02.965Z,68.90
2019-03-05T12:00:11.317Z,66.70
2019-03-05T12:05:16.462Z,70.90
2019-03-05T12:10:23.969Z,73.50
2019-03-05T12:15:31.690Z,74.90
2019-03-05T12:20:36.863Z,76.60
2019-03-05T12:25:42.046Z,76.40
2019-03-05T12:30:47.486Z,75.80
2019-03-05T12:35:52.880Z,76.30
2019-03-05T12:40:57.957Z,74.50
2019-03-05T12:46:03.295Z,73.10
2019-03-05T12:51:09.080Z,68.80
2019-03-05T12:56:23.395Z,65.50
2019-03-05T13:01:21.327Z,64.60
2019-03-05T13:06:26.287Z,65.70
2019-03-05T13:11:31.406Z,65.60
2019-03-05T13:16:39.478Z,67.00
2019-03-05T13:21:44.141Z,63.10
2019-03-05T13:27:08.098Z,65.30
2019-03-05T13:32:16.858Z,63.40
2019-03-05T13:37:20.474Z,63.90
2019-03-05T13:42:29.129Z,64.50
2019-03-05T13:47:32.364Z,65.60
2019-03-05T13:52:40.493Z,66.10
2019-03-05T13:57:46.916Z,65.80
2019-03-05T14:02:55.032Z,66.30
2019-03-05T14:08:21.323Z,68.00
2019-03-05T14:13:26.858Z,67.60
2019-03-05T14:18:32.185Z,66.20
2019-03-05T14:23:37.839Z,67.50
2019-03-05T14:28:43.204Z,66.40
2019-03-05T14:33:51.833Z,66.80
2019-03-05T14:38:56.917Z,64.60
2019-03-05T14:44:02.002Z,65.10
2019-03-05T14:49:07.689Z,64.30
2019-03-05T14:54:12.666Z,66.90
2019-03-05T14:59:17.890Z,68.60
2019-03-05T15:04:23.084Z,68.00
2019-03-05T15:09:28.058Z,67.40
2019-03-05T15:14:33.256Z,68.50
2019-03-05T15:19:38.498Z,67.00
2019-03-05T15:25:04.395Z,66.40
2019-03-05T15:30:12.846Z,66.80
2019-03-05T15:35:17.985Z,65.90
2019-03-05T15:40:23.242Z,66.20
2019-03-05T15:45:28.400Z,67.90
2019-03-05T15:50:33.561Z,69.50
2019-03-05T15:55:39.002Z,70.40
2019-03-05T16:01:04.935Z,70.40
2019-03-05T16:06:10.686Z,70.10
2019-03-05T16:11:16.123Z,70.70
2019-03-05T16:16:21.442Z,69.20
2019-03-05T16:21:26.573Z,68.70
2019-03-05T16:26:31.649Z,68.80
2019-03-05T16:31:38.590Z,66.50
2019-03-05T16:36:45.746Z,66.00
2019-03-05T16:41:53.509Z,66.00
2019-03-05T16:47:01.445Z,64.70
2019-03-05T16:52:08.557Z,65.70
2019-03-05T16:57:15.214Z,65.90
2019-03-05T17:02:21.718Z,64.90
2019-03-05T17:07:28.992Z,65.30
2019-03-05T17:12:33.852Z,66.00
2019-03-05T17:17:39.136Z,65.40
2019-03-05T17:22:44.006Z,65.20
2019-03-05T17:27:49.219Z,65.90
2019-03-05T17:32:54.220Z,65.80
2019-03-05T17:37:59.282Z,66.20
2019-03-05T17:43:04.925Z,68.30
2019-03-05T17:48:10.277Z,69.60
2019-03-05T17:53:15.549Z,70.60
2019-03-05T17:58:20.721Z,71.60
2019-03-05T18:03:25.677Z,71.80
2019-03-05T18:08:31.361Z,72.10
2019-03-05T18:13:36.759Z,71.70
2019-03-05T18:18:42.092Z,71.10
2019-03-05T18:23:47.192Z,71.80
2019-03-05T18:28:52.597Z,71.20
2019-03-05T18:33:58.302Z,72.00
2019-03-05T18:39:03.558Z,71.90
2019-03-05T18:44:08.805Z,71.90
2019-03-05T18:49:13.965Z,72.70
2019-03-05T18:54:19.199Z,72.80
2019-03-05T18:59:24.615Z,72.90
2019-03-05T19:04:30.072Z,72.80
2019-03-05T19:09:35.010Z,73.40
2019-03-05T19:14:40.073Z,73.70
2019-03-05T19:19:45.432Z,74.60
2019-03-05T19:24:50.850Z,75.50
2019-03-05T19:29:56.192Z,76.20
2019-03-05T19:35:02.323Z,76.90
2019-03-05T19:40:11.213Z,77.80
2019-03-05T19:45:18.009Z,78.60
2019-03-05T19:50:24.654Z,79.00
2019-03-05T19:55:30.889Z,79.20
2019-03-05T20:00:41.413Z,79.80
2019-03-05T20:05:47.096Z,80.00
2019-03-05T20:10:52.681Z,80.20
2019-03-05T20:15:57.778Z,81.00
2019-03-05T20:21:02.700Z,80.70
2019-03-05T20:26:08.718Z,81.40
2019-03-05T20:31:14.371Z,81.90
2019-03-05T20:36:19.474Z,82.10
2019-03-05T20:41:24.699Z,83.10
2019-03-05T20:46:29.717Z,83.20
2019-03-05T20:51:34.742Z,83.70
2019-03-05T20:56:39.954Z,84.00
2019-03-05T21:01:44.988Z,84.50
2019-03-05T21:06:50.322Z,84.70
2019-03-05T21:11:55.819Z,84.90
2019-03-05T21:17:00.974Z,84.40
2019-03-05T21:22:06.186Z,84.70
2019-03-05T21:27:11.471Z,83.60
2019-03-05T21:32:16.329Z,81.70
2019-03-05T21:37:21.307Z,82.40
2019-03-05T21:42:26.539Z,80.80
2019-03-05T21:47:31.697Z,82.20
2019-03-05T21:52:37.129Z,85.70
2019-03-05T21:57:42.196Z,87.10
2019-03-05T22:03:06.967Z,89.50
2019-03-05T22:08:12.170Z,90.90
2019-03-05T22:13:17.420Z,92.00
2019-03-05T22:18:22.722Z,91.80
2019-03-05T22:23:27.711Z,92.40
2019-03-05T22:28:33.217Z,92.50
2019-03-05T22:33:38.270Z,93.10
2019-03-05T22:38:43.378Z,93.50
2019-03-05T22:43:48.710Z,93.60
2019-03-05T22:48:53.913Z,94.20
2019-03-05T22:53:59.241Z,94.20
2019-03-05T22:59:04.397Z,94.90
2019-03-05T23:04:09.484Z,95.20
2019-03-05T23:09:16.260Z,95.40
2019-03-05T23:14:22.257Z,96.20
2019-03-05T23:19:28.118Z,96.90
2019-03-05T23:24:33.175Z,97.30
2019-03-05T23:29:40.800Z,97.20
2019-03-05T23:34:46.347Z,97.20
2019-03-05T23:39:52.095Z,97.80
2019-03-05T23:44:57.693Z,97.60
2019-03-05T23:50:03.483Z,97.60
2019-03-05T23:55:09.401Z,98.10
